Time;durP1;ratioP1;P1;durP2;ratioP2;P2;SDS_P1;SDS_P2;PMS_P1;PMS_P2;Temp;Humidity;BMP_temperature;BMP_pressure;BME280_temperature;BME280_humidity;BME280_pressure;Samples;Min_cycle;Max_cycle;Signal;HPM_P1;HPM_P2
2023/10/27 00:01:58;;;;;;;0.10;0.10;;;;;;;-2.35;86.50;99089.53;5042654;28;20040;-73
2023/10/27 00:04:24;;;;;;;0.10;0.10;;;;;;;-2.23;86.25;99083.53;5040462;28;20135;-73
2023/10/27 00:06:50;;;;;;;0.10;0.10;;;;;;;-2.25;85.54;99083.75;5026628;28;20041;-73
2023/10/27 00:09:16;;;;;;;0.10;0.10;;;;;;;-2.30;85.53;99076.31;5043196;28;20059;-73
2023/10/27 00:11:42;;;;;;;0.10;0.10;;;;;;;-2.33;85.58;99074.06;5042205;28;20048;-72
2023/10/27 00:14:08;;;;;;;0.10;0.10;;;;;;;-2.37;86.16;99063.97;5023837;28;20048;-73
2023/10/27 00:16:36;;;;;;;0.10;0.10;;;;;;;-2.37;85.94;99062.13;5024765;28;20471;-72
2023/10/27 00:19:02;;;;;;;0.10;0.10;;;;;;;-2.42;86.32;99054.72;5043029;28;20067;-73
2023/10/27 00:21:28;;;;;;;0.10;0.10;;;;;;;-2.48;86.34;99057.41;5062008;28;20475;-73
2023/10/27 00:23:54;;;;;;;0.10;0.10;;;;;;;-2.57;86.75;99032.69;5033928;28;20050;-72
2023/10/27 00:26:21;;;;;;;0.10;0.10;;;;;;;-2.44;87.17;99038.03;5040788;28;20091;-73
2023/10/27 00:28:50;;;;;;;0.08;0.08;;;;;;;-2.40;87.20;99027.75;5025169;28;20427;-73
2023/10/27 00:31:16;;;;;;;0.10;0.10;;;;;;;-2.42;86.81;99030.63;5024837;28;20392;-73
2023/10/27 00:33:44;;;;;;;0.00;0.00;;;;;;;-2.43;87.38;99038.84;5024001;28;20048;-72
2023/10/27 00:36:10;;;;;;;0.10;0.10;;;;;;;-2.38;87.10;99039.06;5042287;28;20049;-72
2023/10/27 00:38:36;;;;;;;0.10;0.10;;;;;;;-2.39;86.83;99037.41;5041399;28;20072;-73
2023/10/27 00:41:03;;;;;;;0.00;0.00;;;;;;;-2.43;87.00;99041.53;5043135;28;20052;-72
2023/10/27 00:43:29;;;;;;;0.10;0.10;;;;;;;-2.45;87.27;99038.22;5041588;28;20053;-72
2023/10/27 00:45:55;;;;;;;0.10;0.10;;;;;;;-2.49;87.45;99032.50;5043305;28;20144;-72
2023/10/27 00:48:22;;;;;;;0.10;0.10;;;;;;;-2.52;87.38;99035.56;5024102;28;20041;-73
2023/10/27 00:50:50;;;;;;;0.10;0.10;;;;;;;-2.54;87.46;99023.44;5042757;28;20465;-72
2023/10/27 00:53:19;;;;;;;;;;;;;;;-2.46;87.37;99020.53;5042268;28;20049;-72
2023/10/27 00:55:46;;;;;;;0.10;0.10;;;;;;;-2.50;86.68;99025.47;5042129;28;20354;-73
2023/10/27 00:58:14;;;;;;;0.10;0.10;;;;;;;-2.49;86.98;99024.47;5042074;28;20048;-72
2023/10/27 01:00:42;;;;;;;0.10;0.10;;;;;;;-2.45;87.18;99009.63;5042739;28;20111;-73
2023/10/27 01:03:08;;;;;;;0.10;0.10;;;;;;;-2.35;87.01;99013.69;5044292;28;20466;-72
2023/10/27 01:05:35;;;;;;;0.10;0.10;;;;;;;-2.39;86.52;99018.69;5042379;28;20049;-72
2023/10/27 01:08:02;;;;;;;0.10;0.10;;;;;;;-2.47;86.75;99011.69;5043040;28;20135;-73
2023/10/27 01:10:29;;;;;;;0.10;0.10;;;;;;;-2.47;86.92;99008.16;5045344;28;20045;-73
2023/10/27 01:12:55;;;;;;;0.10;0.10;;;;;;;-2.48;86.79;99004.69;5009892;28;20488;-73
2023/10/27 01:15:21;;;;;;;0.10;0.10;;;;;;;-2.44;86.96;99002.38;5046118;28;20106;-73
2023/10/27 01:17:47;;;;;;;0.10;0.10;;;;;;;-2.45;87.08;98998.06;5046210;28;20048;-73
2023/10/27 01:20:13;;;;;;;0.10;0.10;;;;;;;-2.42;86.82;99000.31;5027143;28;20053;-73
2023/10/27 01:22:44;;;;;;;0.10;0.10;;;;;;;-2.40;86.75;98994.78;5043745;28;20045;-73
2023/10/27 01:25:12;;;;;;;0.10;0.10;;;;;;;-2.44;86.82;98992.53;5044609;28;20139;-73
2023/10/27 01:27:38;;;;;;;;;;;;;;;-2.38;86.58;98988.19;5043892;28;20045;-73
2023/10/27 01:30:05;;;;;;;0.10;0.10;;;;;;;-2.37;86.67;98989.81;5046256;28;20002;-73
2023/10/27 01:32:32;;;;;;;0.10;0.10;;;;;;;-2.39;86.15;98980.34;5046142;28;20052;-73
2023/10/27 01:34:59;;;;;;;0.10;0.10;;;;;;;-2.38;86.31;98969.44;5047475;28;20060;-73
2023/10/27 01:37:25;;;;;;;0.10;0.10;;;;;;;-2.31;86.19;98977.47;5045172;28;20044;-73
2023/10/27 01:39:53;;;;;;;0.10;0.10;;;;;;;-2.32;85.79;98967.78;5043600;28;20072;-73
2023/10/27 01:42:19;;;;;;;0.10;0.10;;;;;;;-2.35;85.87;98968.19;5027241;28;20057;-73
2023/10/27 01:44:45;;;;;;;0.10;0.10;;;;;;;-2.40;85.34;98951.94;5042162;28;20049;-73
2023/10/27 01:47:11;;;;;;;0.10;0.10;;;;;;;-2.35;85.44;98965.50;5050483;28;20056;-72
2023/10/27 01:49:37;;;;;;;0.10;0.10;;;;;;;-2.37;85.73;98962.22;5043296;28;20041;-73
2023/10/27 01:52:03;;;;;;;0.10;0.10;;;;;;;-2.35;86.05;98960.97;5044584;28;20084;-72
2023/10/27 01:54:30;;;;;;;0.10;0.10;;;;;;;-2.35;86.31;98950.25;5026454;28;20095;-72
2023/10/27 01:56:57;;;;;;;0.57;0.20;;;;;;;-2.34;86.10;98940.38;5026768;28;20044;-72
2023/10/27 01:59:24;;;;;;;0.10;0.10;;;;;;;-2.38;85.76;98934.63;5043931;28;20045;-72
2023/10/27 02:01:50;;;;;;;0.10;0.10;;;;;;;-2.44;85.90;98940.81;5044042;28;20044;-72
2023/10/27 02:04:16;;;;;;;0.10;0.10;;;;;;;-2.47;86.47;98941.22;5041312;28;20047;-72
2023/10/27 02:06:42;;;;;;;0.10;0.10;;;;;;;-2.48;86.74;98937.75;5045435;28;20044;-72
2023/10/27 02:09:08;;;;;;;0.10;0.10;;;;;;;-2.43;86.54;98942.44;5042340;28;20103;-72
2023/10/27 02:11:34;;;;;;;0.10;0.10;;;;;;;-2.38;86.69;98942.66;5042472;28;20615;-73
2023/10/27 02:14:02;;;;;;;0.10;0.10;;;;;;;-2.37;86.86;98936.28;5046577;28;20502;-73
2023/10/27 02:16:28;;;;;;;;;;;;;;;-2.32;86.83;98927.59;5052211;28;20147;-73
2023/10/27 02:18:54;;;;;;;0.10;0.10;;;;;;;-2.33;86.63;98925.97;5041452;28;19925;-73
2023/10/27 02:21:20;;;;;;;0.10;0.10;;;;;;;-2.34;86.40;98935.00;5043356;28;20071;-73
2023/10/27 02:23:46;;;;;;;0.10;0.10;;;;;;;-2.35;86.61;98923.50;5043992;28;20076;-73
2023/10/27 02:26:13;;;;;;;0.10;0.10;;;;;;;-2.38;86.59;98920.41;5044897;28;20069;-73
2023/10/27 02:28:40;;;;;;;0.00;0.00;;;;;;;-2.34;86.78;98926.97;5043399;28;20052;-72
2023/10/27 02:31:08;;;;;;;0.10;0.10;;;;;;;-2.30;86.65;98914.81;5042235;28;20520;-72
2023/10/27 02:33:34;;;;;;;0.10;0.10;;;;;;;-2.35;86.25;98907.41;5045048;28;20041;-72
2023/10/27 02:36:01;;;;;;;0.10;0.10;;;;;;;-2.35;86.04;98909.25;5009285;28;20140;-72
2023/10/27 02:38:27;;;;;;;0.10;0.10;;;;;;;-2.37;85.87;98908.66;5044338;28;20307;-73
2023/10/27 02:40:53;;;;;;;0.10;0.10;;;;;;;-2.34;86.31;98900.19;5046678;28;20472;-73
2023/10/27 02:43:20;;;;;;;0.10;0.10;;;;;;;-2.25;86.15;98908.84;5042137;28;20053;-72
2023/10/27 02:45:46;;;;;;;0.10;0.10;;;;;;;-2.21;86.16;98904.69;5042834;28;20350;-73
2023/10/27 02:48:13;;;;;;;0.10;0.10;;;;;;;-2.24;85.92;98886.38;5042278;28;20466;-73
2023/10/27 02:50:39;;;;;;;;;;;;;;;-2.30;86.17;98883.50;5043637;28;20126;-73
2023/10/27 02:53:05;;;;;;;0.10;0.10;;;;;;;-2.34;86.36;98893.00;5041830;28;19964;-74
2023/10/27 02:55:34;;;;;;;0.00;0.00;;;;;;;-2.36;86.56;98896.91;5044393;28;20037;-74
2023/10/27 02:58:01;;;;;;;0.10;0.10;;;;;;;-2.39;86.63;98892.81;5046802;28;20056;-74
2023/10/27 03:00:27;;;;;;;0.10;0.10;;;;;;;-2.38;86.78;98896.31;5036744;28;20416;-75
2023/10/27 03:02:53;;;;;;;0.10;0.10;;;;;;;-2.34;87.34;98892.16;5043245;28;20126;-74
2023/10/27 03:05:21;;;;;;;0.10;0.10;;;;;;;-2.33;86.88;98888.47;5043557;28;20044;-74
2023/10/27 03:07:47;;;;;;;0.10;0.10;;;;;;;-2.32;86.70;98879.41;5046061;28;20037;-75
2023/10/27 03:10:14;;;;;;;0.10;0.10;;;;;;;-2.32;86.91;98857.97;5043312;28;20052;-74
2023/10/27 03:12:40;;;;;;;0.10;0.10;;;;;;;-2.34;87.10;98860.03;5025691;28;20436;-74
2023/10/27 03:15:09;;;;;;;0.10;0.10;;;;;;;-2.36;87.20;98844.19;5028395;28;20053;-74
2023/10/27 03:17:35;;;;;;;0.10;0.10;;;;;;;-2.35;87.17;98850.34;5020863;28;20052;-75
2023/10/27 03:20:04;;;;;;;0.10;0.10;;;;;;;-2.44;87.34;98841.75;5024950;28;20068;-75
2023/10/27 03:22:32;;;;;;;0.10;0.10;;;;;;;-2.32;87.40;98860.66;5036208;28;20045;-75
2023/10/27 03:24:59;;;;;;;0.08;0.08;;;;;;;-2.26;87.72;98869.66;5039056;28;20057;-74
2023/10/27 03:27:25;;;;;;;0.10;0.10;;;;;;;-2.30;87.61;98864.75;5028265;28;20045;-75
2023/10/27 03:29:51;;;;;;;0.10;0.10;;;;;;;-2.33;87.32;98856.34;5041894;28;20056;-74
2023/10/27 03:32:18;;;;;;;0.10;0.10;;;;;;;-2.30;87.58;98864.75;5043255;28;20044;-74
2023/10/27 03:34:46;;;;;;;0.10;0.10;;;;;;;-2.26;87.63;98872.34;5043240;28;20049;-74
2023/10/27 03:37:12;;;;;;;0.10;0.10;;;;;;;-2.26;87.53;98870.50;5041669;28;20068;-74
2023/10/27 03:39:40;;;;;;;0.10;0.10;;;;;;;-2.30;87.49;98883.50;5043137;28;20429;-74
2023/10/27 03:42:07;;;;;;;0.10;0.10;;;;;;;-2.26;87.82;98883.91;5044890;28;20067;-74
2023/10/27 03:44:36;;;;;;;0.00;0.00;;;;;;;-2.21;87.87;98861.84;5040263;28;20044;-74
2023/10/27 03:47:04;;;;;;;0.10;0.10;;;;;;;-2.22;87.49;98863.69;5026045;28;20505;-74
2023/10/27 03:49:30;;;;;;;;;;;;;;;-2.23;87.43;98854.00;5035202;28;20064;-74
2023/10/27 03:51:57;;;;;;;0.10;0.10;;;;;;;-2.26;87.30;98843.72;5043100;28;20331;-74
2023/10/27 03:54:23;;;;;;;0.10;0.10;;;;;;;-2.32;87.39;98850.75;5040206;28;20108;-74
2023/10/27 03:56:51;;;;;;;0.10;0.10;;;;;;;-2.37;87.73;98845.22;5042028;28;20045;-74
2023/10/27 03:59:19;;;;;;;0.10;0.10;;;;;;;-2.36;88.06;98846.88;5040371;28;20057;-74
2023/10/27 04:01:45;;;;;;;0.10;0.10;;;;;;;-2.36;88.23;98829.97;5044009;28;20083;-74
2023/10/27 04:04:11;;;;;;;0.10;0.10;;;;;;;-2.33;88.45;98826.88;5041269;28;20053;-74
2023/10/27 04:06:38;;;;;;;0.10;0.10;;;;;;;-2.23;88.55;98818.38;5042009;28;20052;-74
2023/10/27 04:09:04;;;;;;;0.10;0.10;;;;;;;-2.22;88.08;98814.66;5038016;28;20059;-74
2023/10/27 04:11:30;;;;;;;0.10;0.10;;;;;;;-2.24;88.36;98809.50;5044719;28;20064;-74
2023/10/27 04:13:58;;;;;;;0.10;0.10;;;;;;;-2.29;88.32;98802.09;5042661;28;20433;-75
2023/10/27 04:16:24;;;;;;;0.10;0.10;;;;;;;-2.37;88.25;98786.31;5041666;28;20098;-74
2023/10/27 04:18:50;;;;;;;0.10;0.10;;;;;;;-2.35;88.63;98792.28;5044437;28;20159;-74
2023/10/27 04:21:16;;;;;;;0.10;0.10;;;;;;;-2.31;88.77;98800.69;5041301;28;20068;-74
2023/10/27 04:23:43;;;;;;;0.10;0.10;;;;;;;-2.30;88.87;98802.34;5043892;28;20048;-74
2023/10/27 04:26:11;;;;;;;0.00;0.00;;;;;;;-2.32;88.68;98801.75;5043195;28;20049;-74
2023/10/27 04:28:37;;;;;;;0.10;0.10;;;;;;;-2.30;88.72;98807.69;5056982;28;20309;-75
2023/10/27 04:31:05;;;;;;;0.10;0.10;;;;;;;-2.30;88.67;98787.09;5024971;28;20040;-74
2023/10/27 04:33:31;;;;;;;0.10;0.10;;;;;;;-2.28;88.48;98786.88;5042852;28;20575;-75
2023/10/27 04:35:57;;;;;;;0.10;0.10;;;;;;;-2.28;88.44;98793.03;5045568;28;20045;-74
2023/10/27 04:38:23;;;;;;;0.10;0.10;;;;;;;-2.25;88.41;98789.13;5039339;28;20055;-74
2023/10/27 04:40:51;;;;;;;0.10;0.10;;;;;;;-2.23;88.40;98778.19;5042443;28;20037;-74
2023/10/27 04:43:17;;;;;;;0.10;0.10;;;;;;;-2.15;88.27;98777.94;5026058;28;20052;-74
2023/10/27 04:45:45;;;;;;;0.10;0.10;;;;;;;-2.19;87.83;98766.81;5032169;28;20049;-75
2023/10/27 04:48:13;;;;;;;0.10;0.10;;;;;;;-2.18;88.07;98775.69;5068292;28;20144;-74
2023/10/27 04:50:39;;;;;;;0.10;0.10;;;;;;;-2.18;87.59;98756.94;5037953;28;20044;-73
2023/10/27 04:53:05;;;;;;;0.10;0.10;;;;;;;-2.21;87.42;98765.41;5034408;28;20053;-72
2023/10/27 04:55:31;;;;;;;0.10;0.10;;;;;;;-2.20;87.57;98788.47;5033704;28;20096;-72
2023/10/27 04:57:57;;;;;;;0.10;0.10;;;;;;;-2.21;87.27;98771.56;5036244;28;20102;-72
2023/10/27 05:00:24;;;;;;;0.10;0.10;;;;;;;-2.20;87.52;98769.72;5041032;28;20057;-73
2023/10/27 05:02:53;;;;;;;0.10;0.10;;;;;;;-2.16;87.43;98765.56;5044330;28;20466;-72
2023/10/27 05:05:21;;;;;;;1.20;0.17;;;;;;;-2.17;86.99;98772.81;5046034;28;20055;-73
2023/10/27 05:07:47;;;;;;;0.10;0.10;;;;;;;-2.16;87.23;98765.56;5045934;28;20048;-72
2023/10/27 05:10:13;;;;;;;0.10;0.10;;;;;;;-2.18;86.94;98762.28;5030144;28;20427;-73
2023/10/27 05:12:40;;;;;;;0.00;0.00;;;;;;;-2.16;87.01;98760.22;5028145;28;20048;-73
2023/10/27 05:15:07;;;;;;;0.10;0.10;;;;;;;-2.09;87.12;98761.00;5029102;28;20506;-72
2023/10/27 05:17:34;;;;;;;0.15;0.15;;;;;;;-2.05;87.03;98764.88;5044509;28;20118;-73
2023/10/27 05:20:02;;;;;;;0.10;0.10;;;;;;;-2.08;86.58;98743.06;5040802;28;20057;-73
2023/10/27 05:22:31;;;;;;;0.10;0.10;;;;;;;-2.08;86.82;98740.38;5026388;28;20618;-72
2023/10/27 05:25:03;;;;;;;0.10;0.10;;;;;;;-2.07;87.04;98742.00;5027819;28;20140;-72
2023/10/27 05:27:30;;;;;;;0.10;0.10;;;;;;;-2.02;87.42;98747.56;5040876;28;20068;-71
2023/10/27 05:29:56;;;;;;;0.10;0.10;;;;;;;-1.96;87.46;98737.81;4998790;28;20048;-71
2023/10/27 05:32:23;;;;;;;0.10;0.10;;;;;;;-1.93;87.02;98732.84;5031207;28;20053;-71
2023/10/27 05:34:49;;;;;;;0.10;0.10;;;;;;;-1.93;86.98;98722.13;5034799;28;20045;-71
2023/10/27 05:37:15;;;;;;;0.10;0.10;;;;;;;-1.98;86.75;98713.09;5027457;28;20055;-71
2023/10/27 05:39:43;;;;;;;0.10;0.10;;;;;;;-1.99;86.70;98717.66;5028933;28;20571;-71
2023/10/27 05:42:09;;;;;;;0.10;0.10;;;;;;;-1.97;87.29;98720.09;5004947;28;20140;-72
2023/10/27 05:44:36;;;;;;;0.10;0.10;;;;;;;-1.94;87.24;98717.78;5034991;28;20049;-71
2023/10/27 05:47:03;;;;;;;0.10;0.10;;;;;;;-1.86;87.59;98727.41;5031043;28;20056;-71
2023/10/27 05:49:29;;;;;;;0.10;0.10;;;;;;;-1.88;87.75;98734.88;5032701;28;20047;-71
2023/10/27 05:51:56;;;;;;;0.10;0.10;;;;;;;-1.90;87.73;98729.72;5027987;28;20045;-71
2023/10/27 05:54:23;;;;;;;0.10;0.10;;;;;;;-1.89;87.72;98741.25;5021735;28;20056;-71
2023/10/27 05:56:52;;;;;;;0.10;0.10;;;;;;;-1.94;87.73;98733.06;5041993;28;20099;-72
2023/10/27 05:59:18;;;;;;;0.10;0.10;;;;;;;-1.93;88.16;98737.38;5043713;28;20049;-73
2023/10/27 06:01:44;;;;;;;0.10;0.10;;;;;;;-1.90;88.32;98740.44;5045474;28;20511;-73
2023/10/27 06:04:11;;;;;;;0.10;0.10;;;;;;;-1.84;88.41;98732.56;5047614;28;20049;-73
2023/10/27 06:06:37;;;;;;;0.10;0.10;;;;;;;-1.81;87.91;98726.75;5029178;28;20428;-73
2023/10/27 06:09:03;;;;;;;0.10;0.10;;;;;;;-1.79;87.38;98711.28;5041667;28;20041;-74
2023/10/27 06:11:29;;;;;;;0.10;0.10;;;;;;;-1.80;87.18;98710.44;5047343;28;20457;-71
2023/10/27 06:13:57;;;;;;;0.10;0.10;;;;;;;-1.75;86.72;98699.06;5045241;28;20049;-72
2023/10/27 06:16:24;;;;;;;0.10;0.10;;;;;;;-1.71;86.66;98695.72;5043827;28;20153;-71
2023/10/27 06:18:52;;;;;;;0.10;0.10;;;;;;;-1.64;86.73;98681.44;5037652;28;20080;-71
2023/10/27 06:21:19;;;;;;;0.10;0.10;;;;;;;-1.60;86.36;98694.16;5040057;28;20139;-74
2023/10/27 06:23:46;;;;;;;0.10;0.10;;;;;;;-1.59;86.56;98695.81;5046196;28;20045;-75
2023/10/27 06:26:12;;;;;;;0.10;0.10;;;;;;;-1.53;86.56;98687.94;5029920;28;20152;-74
2023/10/27 06:28:38;;;;;;;0.10;0.10;;;;;;;-1.48;86.49;98683.56;5027612;28;20092;-75
2023/10/27 06:31:07;;;;;;;0.10;0.10;;;;;;;-1.48;86.22;98680.88;5044493;28;20045;-71
2023/10/27 06:33:35;;;;;;;0.10;0.10;;;;;;;-1.48;86.19;98686.22;5046967;28;20107;-71
2023/10/27 06:36:02;;;;;;;0.10;0.10;;;;;;;-1.50;86.26;98682.94;5046614;28;20048;-71
2023/10/27 06:38:29;;;;;;;0.10;0.10;;;;;;;-1.55;86.21;98682.78;5049233;28;20347;-74
2023/10/27 06:40:55;;;;;;;0.10;0.10;;;;;;;-1.52;86.48;98678.84;5044258;28;20060;-71
2023/10/27 06:43:22;;;;;;;0.10;0.10;;;;;;;-1.48;86.29;98688.91;5048215;28;20508;-71
2023/10/27 06:45:48;;;;;;;0.10;0.10;;;;;;;-1.50;86.28;98668.72;5045914;28;20095;-71
2023/10/27 06:48:16;;;;;;;0.10;0.10;;;;;;;-1.47;86.44;98671.78;5045424;28;20607;-71
2023/10/27 06:50:42;;;;;;;0.10;0.10;;;;;;;-1.42;86.33;98660.34;5013303;28;20049;-75
2023/10/27 06:53:08;;;;;;;0.10;0.10;;;;;;;-1.47;86.31;98671.78;5043587;28;20053;-74
2023/10/27 06:55:34;;;;;;;0.10;0.10;;;;;;;-1.48;86.17;98658.59;5047234;28;20185;-75
2023/10/27 06:58:00;;;;;;;0.10;0.10;;;;;;;-1.52;86.30;98658.22;5043562;28;20102;-75
2023/10/27 07:00:27;;;;;;;0.10;0.10;;;;;;;-1.50;86.52;98660.69;5044929;28;20500;-71
2023/10/27 07:02:53;;;;;;;0.10;0.10;;;;;;;-1.45;86.40;98650.91;5045438;28;20053;-71
2023/10/27 07:05:21;;;;;;;0.10;0.10;;;;;;;-1.43;86.23;98653.34;5045978;28;20053;-71
2023/10/27 07:07:47;;;;;;;0.10;0.10;;;;;;;-1.44;86.10;98654.41;5038295;28;20090;-71
2023/10/27 07:10:14;;;;;;;0.10;0.10;;;;;;;-1.42;85.80;98660.34;5027257;28;20140;-71
2023/10/27 07:12:40;;;;;;;0.10;0.10;;;;;;;-1.44;85.90;98663.28;5012535;28;20059;-71
2023/10/27 07:15:07;;;;;;;0.10;0.10;;;;;;;-1.52;85.75;98665.44;5042750;28;20394;-71
2023/10/27 07:17:33;;;;;;;0.10;0.10;;;;;;;-1.48;85.51;98653.22;5040881;28;20427;-71
2023/10/27 07:20:00;;;;;;;0.10;0.10;;;;;;;-1.55;85.40;98658.66;5043646;28;20549;-71
2023/10/27 07:22:27;;;;;;;0.10;0.10;;;;;;;-1.59;85.67;98666.31;5026394;28;20060;-71
2023/10/27 07:24:53;;;;;;;0.10;0.10;;;;;;;-1.59;85.93;98665.50;5044889;28;20048;-71
2023/10/27 07:27:20;;;;;;;0.10;0.10;;;;;;;-1.59;86.11;98665.50;5020650;28;20358;-71
2023/10/27 07:29:46;;;;;;;0.10;0.10;;;;;;;-1.58;86.01;98651.88;5036853;28;20593;-71
2023/10/27 07:32:13;;;;;;;0.10;0.10;;;;;;;-1.58;85.90;98659.09;5024792;28;21300;-73
2023/10/27 07:34:40;;;;;;;0.10;0.10;;;;;;;-1.57;85.86;98656.19;5015492;28;20037;-75
2023/10/27 07:37:06;;;;;;;0.10;0.10;;;;;;;-1.60;86.03;98650.47;5030993;28;20435;-75
2023/10/27 07:39:34;;;;;;;0.10;0.10;;;;;;;-1.53;85.98;98656.56;5040117;28;20325;-75
2023/10/27 07:42:02;;;;;;;0.10;0.10;;;;;;;-1.48;86.01;98650.53;5041424;28;20469;-75
2023/10/27 07:44:28;;;;;;;0.10;0.10;;;;;;;-1.47;85.73;98655.69;5037922;28;20136;-75
2023/10/27 07:46:55;;;;;;;0.10;0.10;;;;;;;-1.45;85.60;98658.13;5022762;28;20080;-75
2023/10/27 07:49:21;;;;;;;0.10;0.10;;;;;;;-1.46;85.64;98643.91;5050798;28;20118;-71
2023/10/27 07:51:48;;;;;;;0.10;0.10;;;;;;;-1.47;85.71;98641.44;5038946;28;20052;-71
2023/10/27 07:54:14;;;;;;;0.10;0.10;;;;;;;-1.47;85.92;98644.13;5041096;28;20080;-71
2023/10/27 07:56:42;;;;;;;0.10;0.10;;;;;;;-1.44;85.91;98643.69;5041361;28;20481;-75
2023/10/27 07:59:08;;;;;;;0.13;0.13;;;;;;;-1.39;86.29;98640.34;5039811;28;20045;-74
2023/10/27 08:01:34;;;;;;;0.10;0.10;;;;;;;-1.33;86.17;98642.09;5044534;28;20049;-74
2023/10/27 08:04:03;;;;;;;0.10;0.10;;;;;;;-1.32;85.93;98641.88;5027644;28;20526;-74
2023/10/27 08:06:29;;;;;;;0.10;0.10;;;;;;;-1.30;85.71;98641.66;5046197;28;20052;-74
2023/10/27 08:08:55;;;;;;;0.10;0.10;;;;;;;-1.32;85.97;98636.53;5044123;28;20056;-74
2023/10/27 08:11:22;;;;;;;0.10;0.10;;;;;;;-1.29;85.82;98630.69;5040151;28;20045;-74
2023/10/27 08:13:49;;;;;;;0.10;0.10;;;;;;;-1.31;85.65;98626.63;5038426;28;20067;-74
2023/10/27 08:16:16;;;;;;;0.13;0.13;;;;;;;-1.34;85.68;98632.41;5040106;28;20045;-74
2023/10/27 08:18:42;;;;;;;0.20;0.20;;;;;;;-1.35;85.62;98631.63;5031439;28;20068;-75
2023/10/27 08:21:08;;;;;;;0.10;0.10;;;;;;;-1.33;85.70;98628.69;5026380;28;20140;-74
2023/10/27 08:23:34;;;;;;;0.10;0.10;;;;;;;-1.33;85.37;98626.00;5035469;28;20127;-74
2023/10/27 08:26:01;;;;;;;0.10;0.10;;;;;;;-1.36;85.47;98600.47;5041134;28;20516;-74
2023/10/27 08:28:27;;;;;;;0.10;0.10;;;;;;;-1.33;85.26;98617.97;5036643;28;20052;-73
2023/10/27 08:30:56;;;;;;;0.10;0.10;;;;;;;-1.28;85.43;98631.53;5021438;28;20037;-73
2023/10/27 08:33:22;;;;;;;0.10;0.10;;;;;;;-1.21;84.99;98623.41;5043301;28;20055;-73
2023/10/27 08:35:48;;;;;;;0.10;0.10;;;;;;;-1.18;84.65;98621.06;5045046;28;20059;-72
2023/10/27 08:38:15;;;;;;;0.10;0.10;;;;;;;-1.13;84.51;98624.94;5042601;28;20060;-74
2023/10/27 08:40:42;;;;;;;0.10;0.10;;;;;;;-1.11;84.28;98617.50;5023479;28;20041;-74
2023/10/27 08:43:10;;;;;;;0.10;0.10;;;;;;;-1.07;84.19;98595.34;5040874;28;20052;-73
2023/10/27 08:45:37;;;;;;;0.10;0.10;;;;;;;-1.10;84.16;98597.66;5040505;28;20598;-71
2023/10/27 08:48:05;;;;;;;0.15;0.15;;;;;;;-1.11;83.89;98593.34;5028419;28;20569;-70
2023/10/27 08:50:31;;;;;;;0.10;0.10;;;;;;;-1.06;83.71;98607.72;5033364;28;20197;-71
2023/10/27 08:52:59;;;;;;;0.10;0.10;;;;;;;-1.07;83.88;98599.88;5023151;28;20107;-71
2023/10/27 08:55:26;;;;;;;;;;;;;;;-1.07;83.79;98599.88;5022868;28;20037;-71
2023/10/27 08:57:55;;;;;;;0.10;0.10;;;;;;;-1.06;83.92;98597.00;5041151;28;19986;-70
2023/10/27 09:00:22;;;;;;;0.10;0.10;;;;;;;-1.10;83.83;98600.34;5039082;28;20189;-71
2023/10/27 09:02:48;;;;;;;0.10;0.10;;;;;;;-1.11;83.91;98596.81;5030577;28;20041;-71
2023/10/27 09:05:17;;;;;;;0.10;0.10;;;;;;;-1.11;83.86;98596.81;5020821;28;20056;-71
2023/10/27 09:07:43;;;;;;;0.10;0.10;;;;;;;-1.15;84.00;98607.22;5033586;28;20045;-70
2023/10/27 09:10:10;;;;;;;0.10;0.10;;;;;;;-1.08;84.04;98599.09;5033990;28;20053;-71
2023/10/27 09:12:37;;;;;;;0.10;0.10;;;;;;;-1.08;84.11;98600.94;5022241;28;20103;-71
2023/10/27 09:15:05;;;;;;;0.10;0.10;;;;;;;-1.12;84.13;98605.13;5037369;28;20532;-70
2023/10/27 09:17:50;;;;;;;0.10;0.10;;;;;;;-1.13;84.19;98598.94;5040166;28;20518;-70
2023/10/27 09:20:19;;;;;;;0.10;0.10;;;;;;;-1.08;84.31;98600.94;5030321;28;20047;-71
2023/10/27 09:22:56;;;;;;;0.10;0.10;;;;;;;-1.04;84.07;98600.25;5031950;28;20045;-73
2023/10/27 09:25:28;;;;;;;0.10;0.10;;;;;;;-1.02;84.08;98595.47;5032851;28;20049;-73
2023/10/27 09:27:55;;;;;;;0.10;0.10;;;;;;;-1.01;84.05;98597.09;5055582;28;20558;-74
2023/10/27 09:30:32;;;;;;;0.10;0.10;;;;;;;-1.00;83.81;98590.69;5043784;28;20385;-73
2023/10/27 09:33:15;;;;;;;0.10;0.10;;;;;;;-0.97;84.06;98585.91;5040403;28;20072;-73
2023/10/27 09:35:44;;;;;;;0.10;0.10;;;;;;;-0.99;84.06;98583.47;5028673;28;20401;-74
2023/10/27 09:38:12;;;;;;;0.10;0.10;;;;;;;-0.98;84.41;98581.59;5045560;28;20393;-74
2023/10/27 09:40:40;;;;;;;0.10;0.10;;;;;;;-1.03;84.20;98580.44;5045143;28;20103;-71
2023/10/27 09:43:08;;;;;;;0.10;0.10;;;;;;;-1.05;84.64;98573.63;5046699;28;20049;-74
2023/10/27 09:45:37;;;;;;;0.10;0.10;;;;;;;-1.09;84.89;98569.78;5019308;28;20041;-73
2023/10/27 09:48:06;;;;;;;0.10;0.10;;;;;;;-0.98;84.81;98568.19;5043865;28;20065;-74
2023/10/27 09:50:33;;;;;;;0.10;0.10;;;;;;;-0.98;85.06;98578.91;5041713;28;20048;-74
2023/10/27 09:53:02;;;;;;;0.10;0.10;;;;;;;-1.00;85.12;98569.22;5025689;28;20535;-74
2023/10/27 09:55:30;;;;;;;0.10;0.10;;;;;;;-1.04;85.22;98568.06;5042640;28;20053;-74
2023/10/27 09:57:57;;;;;;;0.10;0.10;;;;;;;-1.06;85.45;98563.97;5043247;28;20065;-74
2023/10/27 10:00:29;;;;;;;0.10;0.10;;;;;;;-1.03;85.66;98558.97;5046149;28;20076;-75
2023/10/27 10:02:59;;;;;;;0.10;0.10;;;;;;;-1.03;85.76;98563.50;5048900;28;20215;-74
2023/10/27 10:05:26;;;;;;;0.10;0.10;;;;;;;-1.04;85.78;98562.69;5045320;28;20056;-71
2023/10/27 10:07:54;;;;;;;0.10;0.10;;;;;;;-1.03;85.85;98545.53;5038527;28;20046;-71
2023/10/27 10:10:26;;;;;;;0.10;0.10;;;;;;;-0.97;85.66;98551.03;5030467;28;20436;-74
2023/10/27 10:13:04;;;;;;;0.10;0.10;;;;;;;-1.04;85.65;98546.59;5011923;28;20045;-71
2023/10/27 10:15:31;;;;;;;;;;;;;;;-1.04;85.85;98554.63;5044202;28;20056;-71
2023/10/27 10:17:57;;;;;;;0.10;0.10;;;;;;;-1.12;85.92;98538.84;5045549;28;19960;-70
2023/10/27 10:20:58;;;;;;;0.10;0.10;;;;;;;-1.06;86.03;98542.50;5039473;28;20103;-71
2023/10/27 10:24:14;;;;;;;0.10;0.10;;;;;;;-1.14;86.55;98549.00;5024980;28;20069;-71
2023/10/27 10:27:13;;;;;;;0.10;0.10;;;;;;;-1.19;86.96;98538.94;5033579;28;20049;-71
2023/10/27 10:29:40;;;;;;;0.10;0.10;;;;;;;-1.23;87.26;98545.03;4963156;28;20577;-71
2023/10/27 10:32:43;;;;;;;0.10;0.10;;;;;;;-1.21;87.39;98541.03;5005572;28;20144;-74
2023/10/27 10:35:23;;;;;;;0.17;0.17;;;;;;;-1.21;87.21;98535.69;5036575;28;20056;-74
2023/10/27 10:37:53;;;;;;;0.10;0.10;;;;;;;-1.16;87.06;98533.16;5046250;28;20416;-74
2023/10/27 10:40:22;;;;;;;0.10;0.10;;;;;;;-1.14;86.81;98519.50;5036582;28;20088;-75
2023/10/27 10:43:36;;;;;;;0.10;0.10;;;;;;;-1.17;86.76;98530.69;5036416;28;20041;-75
2023/10/27 10:46:05;;;;;;;0.10;0.10;;;;;;;-1.19;87.26;98527.41;5059999;28;20049;-71
2023/10/27 10:48:34;;;;;;;0.10;0.10;;;;;;;-1.18;87.43;98513.75;5006840;28;20147;-74
2023/10/27 10:51:11;;;;;;;0.10;0.10;;;;;;;-1.16;87.44;98505.50;5039992;28;20071;-75
2023/10/27 10:53:37;;;;;;;0.10;0.10;;;;;;;-1.06;87.55;98513.81;5046447;28;20140;-71
2023/10/27 10:56:04;;;;;;;0.10;0.10;;;;;;;-1.01;87.37;98519.28;5044481;28;20053;-71
2023/10/27 10:58:36;;;;;;;0.10;0.10;;;;;;;-1.01;87.08;98507.75;5041230;28;20064;-71
2023/10/27 11:01:03;;;;;;;0.10;0.10;;;;;;;-0.94;87.25;98499.56;5041084;28;20088;-71
2023/10/27 11:03:36;;;;;;;0.10;0.10;;;;;;;-0.98;87.13;98503.78;5044781;28;20041;-71
2023/10/27 11:06:05;;;;;;;0.10;0.10;;;;;;;-1.03;87.44;98504.47;5040063;28;20080;-72
2023/10/27 11:08:34;;;;;;;0.10;0.10;;;;;;;-1.09;87.41;98500.03;5045678;28;20040;-71
2023/10/27 11:11:03;;;;;;;0.10;0.10;;;;;;;-1.06;87.79;98492.34;5045541;28;20543;-74
2023/10/27 11:13:31;;;;;;;0.00;0.00;;;;;;;-1.07;88.06;98489.88;5043867;28;20049;-74
2023/10/27 11:16:02;;;;;;;0.10;0.10;;;;;;;-1.06;87.97;98488.81;5042823;28;20622;-74
2023/10/27 11:18:31;;;;;;;0.10;0.10;;;;;;;-1.06;88.50;98486.13;5045032;28;20057;-71
2023/10/27 11:20:57;;;;;;;0.00;0.00;;;;;;;-1.03;88.00;98483.81;5046523;28;20065;-74
2023/10/27 11:23:29;;;;;;;0.10;0.10;;;;;;;-1.02;88.46;98480.09;5041458;28;20136;-75
2023/10/27 11:26:03;;;;;;;0.10;0.10;;;;;;;-1.01;88.60;98471.00;5042587;28;20057;-71
2023/10/27 11:28:29;;;;;;;0.10;0.10;;;;;;;-1.03;88.87;98475.78;5034283;28;20033;-71
2023/10/27 11:31:02;;;;;;;0.10;0.10;;;;;;;-1.02;89.08;98472.03;5036020;28;20057;-71
2023/10/27 11:33:29;;;;;;;0.00;0.00;;;;;;;-1.05;89.11;98467.13;5043132;28;20295;-71
2023/10/27 11:35:57;;;;;;;0.10;0.10;;;;;;;-1.11;89.33;98469.94;5045312;28;20431;-75
2023/10/27 11:38:30;;;;;;;0.10;0.10;;;;;;;-1.10;89.70;98458.94;5043634;28;20114;-71